createdAt,value
2017-05-27T00:02:08.396Z,6.80
2017-05-27T00:04:37.251Z,6.60
2017-05-27T00:07:05.350Z,6.22
2017-05-27T00:09:34.535Z,6.72
2017-05-27T00:12:03.368Z,6.92
2017-05-27T00:14:32.238Z,7.36
2017-05-27T00:17:00.316Z,10.60
2017-05-27T00:19:29.176Z,9.04
2017-05-27T00:21:58.025Z,26.14
2017-05-27T00:24:26.900Z,13.88
2017-05-27T00:26:55.751Z,10.08
2017-05-27T00:29:24.625Z,9.74
2017-05-27T00:31:53.539Z,8.74
2017-05-27T00:34:22.401Z,8.56
2017-05-27T00:36:51.272Z,8.14
2017-05-27T00:39:20.107Z,7.20
2017-05-27T00:41:48.974Z,6.44
2017-05-27T00:44:17.812Z,7.60
2017-05-27T00:46:46.668Z,8.80
2017-05-27T00:49:15.507Z,6.62
2017-05-27T00:51:44.367Z,6.58
2017-05-27T00:54:13.204Z,6.76
2017-05-27T00:56:42.141Z,6.44
2017-05-27T00:59:10.988Z,6.42
2017-05-27T01:01:39.836Z,8.12
2017-05-27T01:04:08.706Z,7.78
2017-05-27T01:06:36.785Z,7.44
2017-05-27T01:09:05.643Z,6.72
2017-05-27T01:11:34.480Z,6.52
2017-05-27T01:14:03.372Z,5.58
2017-05-27T01:16:31.479Z,7.42
2017-05-27T01:19:00.330Z,6.86
2017-05-27T01:21:29.216Z,6.26
2017-05-27T01:23:58.061Z,6.42
2017-05-27T01:26:26.918Z,7.10
2017-05-27T01:28:54.996Z,6.28
2017-05-27T01:31:23.859Z,7.56
2017-05-27T01:33:52.700Z,7.42
2017-05-27T01:36:21.559Z,7.66
2017-05-27T01:38:49.635Z,6.90
2017-05-27T01:41:18.479Z,6.08
2017-05-27T01:43:47.328Z,6.96
2017-05-27T01:46:16.185Z,6.08
2017-05-27T01:48:45.053Z,7.14
2017-05-27T01:51:13.889Z,6.54
2017-05-27T01:53:42.736Z,6.74
2017-05-27T01:56:11.577Z,7.48
2017-05-27T01:58:40.470Z,7.48
2017-05-27T02:01:09.328Z,7.20
2017-05-27T02:03:38.189Z,7.60
2017-05-27T02:06:07.041Z,7.84
2017-05-27T02:08:35.937Z,6.90
2017-05-27T02:11:04.793Z,6.88
2017-05-27T02:13:33.636Z,7.42
2017-05-27T02:16:02.494Z,6.82
2017-05-27T02:18:31.380Z,8.02
2017-05-27T02:20:59.459Z,8.08
2017-05-27T02:23:28.309Z,7.22
2017-05-27T02:25:57.143Z,7.80
2017-05-27T02:28:25.997Z,7.12
2017-05-27T02:30:54.081Z,7.70
2017-05-27T02:33:22.937Z,6.98
2017-05-27T02:35:51.803Z,6.66
2017-05-27T02:38:20.802Z,7.72
2017-05-27T02:40:49.650Z,7.38
2017-05-27T02:43:18.519Z,7.94
2017-05-27T02:45:47.363Z,7.96
2017-05-27T02:48:16.215Z,6.80
2017-05-27T02:50:44.320Z,7.42
2017-05-27T02:53:13.175Z,7.34
2017-05-27T02:55:42.019Z,7.18
2017-05-27T02:58:10.864Z,7.64
2017-05-27T03:00:38.952Z,7.52
2017-05-27T03:03:08.052Z,7.24
2017-05-27T03:05:36.928Z,7.58
2017-05-27T03:08:05.793Z,7.58
2017-05-27T03:10:34.640Z,7.22
2017-05-27T03:13:03.501Z,7.54
2017-05-27T03:15:32.339Z,7.30
2017-05-27T03:18:01.205Z,8.34
2017-05-27T03:20:30.048Z,8.56
2017-05-27T03:22:58.915Z,8.90
2017-05-27T03:25:27.757Z,8.60
2017-05-27T03:27:56.620Z,9.76
2017-05-27T03:30:25.464Z,9.00
2017-05-27T03:32:54.388Z,8.78
2017-05-27T03:35:23.243Z,8.98
2017-05-27T03:37:52.107Z,9.74
2017-05-27T03:40:20.973Z,9.40
2017-05-27T03:42:49.814Z,9.12
2017-05-27T03:45:18.683Z,10.08
2017-05-27T03:47:47.537Z,11.30
2017-05-27T03:50:16.409Z,11.38
2017-05-27T03:52:45.261Z,10.62
2017-05-27T03:55:14.117Z,10.62
2017-05-27T03:57:42.979Z,9.72
2017-05-27T04:00:11.827Z,10.18
2017-05-27T04:02:39.939Z,9.54
2017-05-27T04:05:08.789Z,10.68
2017-05-27T04:07:36.886Z,9.70
2017-05-27T04:10:05.755Z,12.04
2017-05-27T04:12:33.853Z,9.54
2017-05-27T04:15:02.705Z,8.50
2017-05-27T04:17:31.553Z,9.00
2017-05-27T04:20:00.419Z,8.36
2017-05-27T04:22:29.260Z,9.00
2017-05-27T04:24:58.112Z,7.74
2017-05-27T04:27:26.979Z,9.32
2017-05-27T04:29:55.084Z,8.46
2017-05-27T04:32:23.929Z,8.78
2017-05-27T04:34:52.800Z,10.12
2017-05-27T04:37:21.692Z,9.80
2017-05-27T04:39:50.536Z,9.94
2017-05-27T04:42:19.393Z,8.88
2017-05-27T04:44:48.240Z,9.74
2017-05-27T04:47:17.113Z,10.12
2017-05-27T04:49:45.968Z,9.74
2017-05-27T04:52:14.065Z,8.54
2017-05-27T04:54:42.936Z,8.30
2017-05-27T04:57:11.790Z,8.88
2017-05-27T04:59:40.676Z,9.18
2017-05-27T05:02:09.531Z,8.26
2017-05-27T05:04:38.393Z,9.20
2017-05-27T05:07:07.280Z,8.90
2017-05-27T05:09:35.361Z,7.88
2017-05-27T05:12:04.226Z,7.96
2017-05-27T05:14:33.093Z,7.54
2017-05-27T05:17:01.956Z,8.32
2017-05-27T05:19:30.812Z,7.40
2017-05-27T05:21:59.694Z,8.34
2017-05-27T05:24:28.541Z,8.72
2017-05-27T05:26:57.395Z,7.98
2017-05-27T05:29:26.261Z,9.36
2017-05-27T05:31:55.149Z,11.12
2017-05-27T05:34:24.022Z,9.40
2017-05-27T05:36:52.884Z,8.78
2017-05-27T05:39:21.737Z,8.22
2017-05-27T05:41:50.593Z,10.50
2017-05-27T05:44:19.495Z,11.20
2017-05-27T05:46:48.350Z,12.22
2017-05-27T05:49:17.225Z,10.46
2017-05-27T05:51:46.098Z,10.04
2017-05-27T05:54:14.941Z,8.42
2017-05-27T05:56:43.811Z,8.02
2017-05-27T05:59:12.657Z,7.84
2017-05-27T06:01:41.523Z,8.74
2017-05-27T06:04:10.360Z,7.48
2017-05-27T06:06:38.445Z,7.30
2017-05-27T06:09:07.302Z,7.78
2017-05-27T06:11:36.191Z,7.56
2017-05-27T06:14:05.033Z,9.22
2017-05-27T06:16:33.894Z,8.20
2017-05-27T06:19:02.748Z,8.10
2017-05-27T06:21:31.588Z,7.70
2017-05-27T06:24:00.450Z,8.34
2017-05-27T06:26:28.537Z,8.38
2017-05-27T06:28:57.386Z,8.10
2017-05-27T06:31:26.224Z,7.32
2017-05-27T06:33:55.114Z,8.70
2017-05-27T06:36:23.970Z,8.82
2017-05-27T06:38:52.812Z,7.52
2017-05-27T06:41:21.674Z,8.56
2017-05-27T06:43:50.542Z,7.84
2017-05-27T06:46:19.427Z,8.40
2017-05-27T06:48:48.267Z,7.90
2017-05-27T06:51:17.121Z,6.98
2017-05-27T06:53:45.978Z,7.86
2017-05-27T06:56:14.868Z,7.52
2017-05-27T06:58:43.717Z,6.84
2017-05-27T07:01:12.560Z,6.32
2017-05-27T07:03:41.408Z,6.48
2017-05-27T07:06:10.274Z,6.66
2017-05-27T07:08:38.375Z,5.98
2017-05-27T07:11:07.217Z,6.10
2017-05-27T07:13:36.077Z,6.72
2017-05-27T07:16:04.920Z,6.32
2017-05-27T07:18:33.794Z,6.60
2017-05-27T07:21:02.632Z,6.02
2017-05-27T07:23:31.503Z,5.86
2017-05-27T07:26:00.827Z,6.56
2017-05-27T07:28:29.678Z,6.26
2017-05-27T07:30:58.538Z,6.04
2017-05-27T07:33:27.381Z,5.48
2017-05-27T07:35:56.227Z,5.62
2017-05-27T07:38:25.087Z,6.06
2017-05-27T07:40:54.052Z,5.84
2017-05-27T07:43:22.902Z,5.96
2017-05-27T07:45:51.758Z,6.14
2017-05-27T07:48:20.612Z,6.02
2017-05-27T07:50:49.620Z,5.50
2017-05-27T07:53:17.709Z,5.34
2017-05-27T07:55:46.556Z,6.56
2017-05-27T07:58:15.408Z,5.66
2017-05-27T08:00:44.253Z,7.60
2017-05-27T08:03:13.126Z,6.50
2017-05-27T08:05:41.975Z,6.28
2017-05-27T08:08:10.815Z,6.74
2017-05-27T08:10:39.667Z,5.02
2017-05-27T08:13:08.516Z,5.36
2017-05-27T08:15:37.379Z,5.22
2017-05-27T08:18:06.304Z,5.50
2017-05-27T08:20:35.199Z,5.30
2017-05-27T08:23:04.036Z,5.68
2017-05-27T08:25:32.884Z,5.60
2017-05-27T08:28:01.981Z,5.80
2017-05-27T08:30:30.822Z,5.12
2017-05-27T08:33:05.267Z,6.12
2017-05-27T08:35:34.104Z,5.58
2017-05-27T08:38:02.999Z,6.04
2017-05-27T08:40:31.845Z,5.24
2017-05-27T08:43:00.754Z,5.40
2017-05-27T08:45:29.635Z,5.48
2017-05-27T08:47:58.471Z,5.16
2017-05-27T08:50:27.321Z,5.40
2017-05-27T08:52:56.237Z,5.26
2017-05-27T08:55:25.092Z,5.02
2017-05-27T08:57:53.936Z,5.50
2017-05-27T09:00:22.823Z,5.40
2017-05-27T09:02:51.678Z,5.32
2017-05-27T09:05:20.511Z,5.40
2017-05-27T09:07:49.373Z,5.06
2017-05-27T09:10:17.454Z,5.06
2017-05-27T09:12:46.292Z,5.00
2017-05-27T09:15:15.217Z,5.44
2017-05-27T09:17:43.301Z,5.48
2017-05-27T09:20:12.391Z,4.80
2017-05-27T09:22:41.475Z,5.00
2017-05-27T09:25:10.380Z,4.62
2017-05-27T09:27:39.304Z,4.82
2017-05-27T09:30:08.148Z,4.60
2017-05-27T09:32:37.013Z,5.22
2017-05-27T09:35:06.070Z,5.02
2017-05-27T09:37:34.931Z,5.40
2017-05-27T09:40:03.005Z,4.68
2017-05-27T09:42:31.864Z,4.70
2017-05-27T09:45:00.707Z,4.08
2017-05-27T09:47:29.552Z,4.48
2017-05-27T09:49:58.391Z,4.64
2017-05-27T09:52:27.278Z,4.82
2017-05-27T09:54:56.115Z,3.96
2017-05-27T09:57:24.956Z,4.38
2017-05-27T09:59:53.803Z,4.36
2017-05-27T10:02:22.658Z,4.20
2017-05-27T10:04:51.515Z,4.44
2017-05-27T10:07:19.596Z,3.90
2017-05-27T10:09:48.495Z,4.38
2017-05-27T10:12:17.439Z,4.14
2017-05-27T10:14:46.276Z,4.50
2017-05-27T10:17:15.119Z,4.30
2017-05-27T10:19:43.960Z,4.68
2017-05-27T10:22:12.812Z,3.70
2017-05-27T10:24:41.649Z,4.60
2017-05-27T10:27:10.534Z,3.56
2017-05-27T10:29:39.420Z,4.18
2017-05-27T10:32:08.273Z,4.48
2017-05-27T10:34:37.116Z,4.56
2017-05-27T10:37:05.964Z,4.02
2017-05-27T10:39:34.815Z,3.96
2017-05-27T10:42:03.656Z,4.22
2017-05-27T10:44:32.906Z,4.60
2017-05-27T10:47:01.762Z,3.46
2017-05-27T10:49:30.614Z,4.60
2017-05-27T10:51:59.462Z,4.02
2017-05-27T10:54:28.320Z,4.36
2017-05-27T10:56:57.176Z,4.10
2017-05-27T10:59:26.011Z,6.68
2017-05-27T11:01:54.894Z,6.96
2017-05-27T11:04:23.748Z,3.86
2017-05-27T11:06:52.616Z,8.26
2017-05-27T11:09:21.476Z,11.16
2017-05-27T11:11:50.319Z,4.14
2017-05-27T11:14:19.183Z,5.80
2017-05-27T11:16:48.024Z,5.38
2017-05-27T11:19:16.892Z,3.98
2017-05-27T11:21:45.732Z,7.76
2017-05-27T11:24:14.591Z,5.50
2017-05-27T11:26:42.737Z,5.34
2017-05-27T11:29:11.611Z,5.02
2017-05-27T11:31:40.507Z,7.66
2017-05-27T11:34:09.348Z,6.70
2017-05-27T11:36:38.187Z,4.72
2017-05-27T11:39:07.050Z,11.64
2017-05-27T11:41:35.901Z,24.44
2017-05-27T11:44:04.772Z,16.72
2017-05-27T11:46:33.626Z,5.60
2017-05-27T11:49:02.487Z,7.58
2017-05-27T11:51:31.328Z,4.94
2017-05-27T11:54:00.179Z,6.14
2017-05-27T11:56:29.047Z,6.04
2017-05-27T11:58:57.879Z,6.32
2017-05-27T12:01:26.775Z,4.62
2017-05-27T12:03:55.615Z,4.44
2017-05-27T12:06:24.499Z,4.28
2017-05-27T12:08:53.350Z,3.90
2017-05-27T12:11:22.212Z,3.42
2017-05-27T12:13:51.066Z,3.56
2017-05-27T12:16:19.903Z,3.68
2017-05-27T12:18:49.080Z,2.78
2017-05-27T12:21:17.921Z,3.42
2017-05-27T12:23:46.775Z,3.32
2017-05-27T12:26:15.866Z,3.82
2017-05-27T12:28:44.696Z,3.32
2017-05-27T12:31:13.555Z,4.96
2017-05-27T12:33:42.425Z,5.14
2017-05-27T12:36:11.291Z,4.80
2017-05-27T12:38:40.123Z,5.00
2017-05-27T12:41:08.994Z,3.70
2017-05-27T12:43:37.828Z,4.00
2017-05-27T12:46:06.683Z,3.92
2017-05-27T12:48:35.551Z,4.10
2017-05-27T12:51:04.398Z,4.58
2017-05-27T12:53:33.259Z,4.12
2017-05-27T12:56:02.122Z,4.02
2017-05-27T12:58:31.154Z,3.50
2017-05-27T13:01:00.002Z,4.10
2017-05-27T13:03:28.854Z,3.50
2017-05-27T13:05:57.707Z,4.52
2017-05-27T13:08:26.562Z,5.38
2017-05-27T13:10:55.496Z,4.12
2017-05-27T13:13:24.356Z,4.30
2017-05-27T13:15:53.207Z,4.40
2017-05-27T13:18:22.049Z,4.04
2017-05-27T13:20:50.883Z,4.22
2017-05-27T13:23:19.731Z,4.48
2017-05-27T13:25:48.582Z,3.64
2017-05-27T13:28:17.464Z,3.58
2017-05-27T13:30:46.315Z,3.66
2017-05-27T13:33:15.157Z,3.80
2017-05-27T13:35:44.006Z,3.72
2017-05-27T13:38:12.856Z,3.08
2017-05-27T13:40:41.707Z,3.18
2017-05-27T13:43:10.569Z,2.70
2017-05-27T13:45:39.416Z,3.38
2017-05-27T13:48:08.259Z,3.00
2017-05-27T13:50:37.104Z,2.60
2017-05-27T13:53:05.980Z,3.50
2017-05-27T13:55:34.840Z,3.10
2017-05-27T13:58:03.696Z,2.72
2017-05-27T14:00:32.532Z,3.22
2017-05-27T14:03:01.557Z,3.98
2017-05-27T14:05:30.401Z,3.14
2017-05-27T14:07:59.270Z,3.10
2017-05-27T14:10:28.116Z,2.80
2017-05-27T14:12:56.963Z,3.20
2017-05-27T14:15:25.827Z,3.00
2017-05-27T14:17:54.670Z,2.88
2017-05-27T14:20:23.540Z,2.70
2017-05-27T14:22:52.791Z,3.96
2017-05-27T14:25:21.632Z,5.44
2017-05-27T14:27:49.716Z,4.48
2017-05-27T14:30:18.567Z,3.98
2017-05-27T14:32:47.436Z,4.76
2017-05-27T14:35:16.286Z,5.00
2017-05-27T14:37:45.173Z,3.52
2017-05-27T14:40:14.008Z,3.86
2017-05-27T14:42:42.851Z,2.90
2017-05-27T14:45:11.714Z,2.58
2017-05-27T14:47:40.551Z,2.78
2017-05-27T14:50:09.407Z,2.92
2017-05-27T14:52:38.259Z,3.26
2017-05-27T14:55:07.137Z,3.72
2017-05-27T14:57:35.971Z,3.56
2017-05-27T15:00:04.807Z,3.42
2017-05-27T15:02:33.663Z,2.98
2017-05-27T15:05:02.509Z,3.46
2017-05-27T15:07:31.348Z,2.80
2017-05-27T15:09:59.438Z,2.98
2017-05-27T15:12:28.327Z,2.70
2017-05-27T15:14:57.164Z,2.98
2017-05-27T15:17:26.012Z,3.00
2017-05-27T15:19:54.863Z,3.38
2017-05-27T15:22:23.719Z,3.26
2017-05-27T15:24:52.567Z,2.72
2017-05-27T15:27:21.420Z,3.08
2017-05-27T15:29:50.283Z,3.28
2017-05-27T15:32:19.123Z,2.74
2017-05-27T15:34:47.965Z,3.18
2017-05-27T15:37:16.807Z,3.60
2017-05-27T15:39:44.884Z,4.48
2017-05-27T15:42:13.732Z,5.10
2017-05-27T15:44:42.587Z,3.84
2017-05-27T15:47:11.456Z,3.62
2017-05-27T15:49:40.297Z,3.56
2017-05-27T15:52:09.152Z,2.86
2017-05-27T15:54:37.995Z,3.96
2017-05-27T15:57:06.854Z,3.00
2017-05-27T15:59:34.927Z,3.80
2017-05-27T16:02:03.772Z,3.76
2017-05-27T16:04:32.654Z,2.88
2017-05-27T16:07:01.489Z,2.62
2017-05-27T16:09:30.324Z,2.72
2017-05-27T16:11:59.177Z,3.20
2017-05-27T16:14:28.031Z,3.10
2017-05-27T16:16:56.878Z,3.40
2017-05-27T16:19:25.739Z,3.90
2017-05-27T16:21:54.592Z,2.92
2017-05-27T16:24:23.428Z,3.20
2017-05-27T16:26:52.276Z,3.08
2017-05-27T16:29:21.423Z,2.78
2017-05-27T16:31:50.265Z,2.92
2017-05-27T16:34:19.112Z,2.56
2017-05-27T16:36:47.953Z,2.92
2017-05-27T16:39:16.060Z,2.72
2017-05-27T16:41:44.916Z,2.70
2017-05-27T16:44:13.755Z,2.88
2017-05-27T16:46:42.616Z,2.90
2017-05-27T16:49:11.460Z,2.94
2017-05-27T16:51:40.304Z,3.20
2017-05-27T16:54:09.181Z,3.40
2017-05-27T16:56:37.288Z,3.96
2017-05-27T16:59:06.131Z,2.68
2017-05-27T17:01:34.976Z,3.02
2017-05-27T17:04:04.223Z,2.90
2017-05-27T17:06:32.335Z,3.24
2017-05-27T17:09:01.175Z,3.48
2017-05-27T17:11:30.016Z,3.22
2017-05-27T17:13:58.905Z,2.80
2017-05-27T17:16:27.742Z,4.36
2017-05-27T17:18:56.592Z,3.74
2017-05-27T17:21:25.446Z,3.20
2017-05-27T17:23:53.523Z,3.02
2017-05-27T17:26:22.372Z,3.86
2017-05-27T17:28:51.213Z,4.08
2017-05-27T17:31:20.075Z,4.00
2017-05-27T17:33:48.927Z,5.06
2017-05-27T17:36:17.967Z,4.84
2017-05-27T17:38:46.812Z,3.82
2017-05-27T17:41:15.660Z,3.60
2017-05-27T17:43:44.504Z,3.10
2017-05-27T17:46:13.348Z,5.40
2017-05-27T17:48:41.453Z,5.82
2017-05-27T17:51:10.292Z,6.44
2017-05-27T17:53:39.134Z,5.52
2017-05-27T17:56:07.997Z,6.90
2017-05-27T17:58:36.836Z,5.94
2017-05-27T18:01:05.682Z,7.50
2017-05-27T18:03:34.547Z,11.20
2017-05-27T18:06:03.416Z,16.82
2017-05-27T18:08:32.274Z,22.18
2017-05-27T18:11:01.132Z,28.24
2017-05-27T18:13:29.234Z,18.38
2017-05-27T18:15:58.089Z,42.22
2017-05-27T18:18:26.958Z,10.52
2017-05-27T18:20:55.799Z,20.96
2017-05-27T18:23:24.677Z,6.40
2017-05-27T18:25:53.516Z,7.06
2017-05-27T18:28:22.365Z,3.44
2017-05-27T18:30:50.444Z,3.98
2017-05-27T18:33:19.288Z,3.76
2017-05-27T18:35:48.140Z,3.46
2017-05-27T18:38:16.994Z,4.06
2017-05-27T18:40:45.859Z,3.80
2017-05-27T18:43:14.699Z,3.80
2017-05-27T18:45:43.596Z,12.66
2017-05-27T18:48:12.462Z,8.38
2017-05-27T18:50:40.536Z,3.02
2017-05-27T18:53:09.391Z,7.20
2017-05-27T18:55:38.223Z,3.86
2017-05-27T18:58:07.108Z,40.10
2017-05-27T19:00:35.195Z,44.02
2017-05-27T19:03:04.044Z,26.98
2017-05-27T19:05:32.900Z,11.78
2017-05-27T19:08:01.769Z,16.88
2017-05-27T19:10:30.686Z,11.50
2017-05-27T19:12:59.529Z,14.02
2017-05-27T19:15:28.377Z,24.94
2017-05-27T19:17:57.236Z,32.02
2017-05-27T19:20:26.091Z,24.14
2017-05-27T19:22:54.188Z,30.06
2017-05-27T19:25:23.054Z,21.20
2017-05-27T19:27:51.151Z,36.68
2017-05-27T19:30:20.009Z,31.94
2017-05-27T19:32:48.847Z,31.06
2017-05-27T19:35:17.714Z,17.66
2017-05-27T19:37:45.813Z,22.90
2017-05-27T19:40:14.689Z,73.64
2017-05-27T19:42:43.605Z,127.02
2017-05-27T19:45:12.468Z,84.88
2017-05-27T19:47:41.324Z,57.24
2017-05-27T19:50:10.173Z,83.10
2017-05-27T19:52:39.032Z,88.20
2017-05-27T19:55:07.884Z,58.48
2017-05-27T19:57:36.763Z,38.72
2017-05-27T20:00:05.619Z,96.98
2017-05-27T20:02:34.467Z,51.16
2017-05-27T20:05:03.324Z,59.00
2017-05-27T20:07:32.180Z,25.30
2017-05-27T20:10:00.267Z,29.30
2017-05-27T20:12:29.142Z,43.56
2017-05-27T20:14:58.038Z,132.62
2017-05-27T20:17:26.123Z,12.76
2017-05-27T20:19:54.967Z,15.96
2017-05-27T20:22:23.828Z,19.94
2017-05-27T20:24:52.679Z,34.32
2017-05-27T20:27:21.534Z,43.20
2017-05-27T20:29:50.388Z,26.42
2017-05-27T20:32:19.259Z,26.18
2017-05-27T20:34:51.631Z,29.00
2017-05-27T20:37:20.485Z,29.64
2017-05-27T20:39:49.336Z,125.38
2017-05-27T20:42:18.292Z,51.90
2017-05-27T20:44:47.163Z,33.64
2017-05-27T20:47:15.999Z,34.56
2017-05-27T20:49:44.869Z,11.62
2017-05-27T20:52:13.713Z,32.26
2017-05-27T20:54:42.592Z,19.18
2017-05-27T20:57:11.440Z,12.06
2017-05-27T20:59:40.285Z,17.94
2017-05-27T21:02:09.176Z,12.28
2017-05-27T21:04:38.016Z,12.46
2017-05-27T21:07:06.892Z,19.62
2017-05-27T21:09:36.133Z,59.42
2017-05-27T21:12:05.011Z,29.66
2017-05-27T21:14:33.883Z,111.24
2017-05-27T21:17:02.728Z,32.48
2017-05-27T21:19:31.584Z,14.68
2017-05-27T21:22:00.432Z,15.08
2017-05-27T21:24:29.279Z,11.92
2017-05-27T21:26:58.160Z,13.92
2017-05-27T21:29:27.048Z,16.50
2017-05-27T21:31:55.910Z,11.92
2017-05-27T21:34:24.759Z,13.40
2017-05-27T21:36:53.626Z,14.50
2017-05-27T21:39:22.471Z,20.40
2017-05-27T21:41:51.375Z,14.70
2017-05-27T21:44:20.237Z,21.28
2017-05-27T21:46:49.239Z,12.46
2017-05-27T21:49:18.092Z,10.16
2017-05-27T21:51:46.971Z,11.06
2017-05-27T21:54:15.831Z,12.12
2017-05-27T21:56:44.672Z,11.06
2017-05-27T21:59:13.552Z,17.62
2017-05-27T22:01:42.404Z,10.60
2017-05-27T22:04:11.283Z,12.28
2017-05-27T22:06:40.132Z,16.58
2017-05-27T22:09:08.986Z,19.72
2017-05-27T22:11:37.867Z,18.32
2017-05-27T22:14:06.847Z,14.46
2017-05-27T22:16:35.711Z,14.54
2017-05-27T22:19:04.601Z,52.64
2017-05-27T22:21:33.474Z,81.90
2017-05-27T22:24:02.332Z,31.50
2017-05-27T22:26:31.199Z,42.32
2017-05-27T22:29:00.080Z,33.72
2017-05-27T22:31:28.921Z,27.96
2017-05-27T22:33:57.812Z,15.74
2017-05-27T22:36:26.663Z,14.16
2017-05-27T22:38:55.529Z,12.56
2017-05-27T22:41:34.322Z,10.28
2017-05-27T22:44:03.232Z,10.40
2017-05-27T22:46:32.109Z,8.20
2017-05-27T22:49:00.964Z,10.30
2017-05-27T22:51:29.810Z,9.34
2017-05-27T22:53:58.656Z,10.16
2017-05-27T22:56:27.508Z,12.38
2017-05-27T22:58:56.369Z,26.92
2017-05-27T23:01:25.244Z,27.42
2017-05-27T23:03:54.107Z,12.22
2017-05-27T23:06:22.952Z,10.84
2017-05-27T23:08:51.800Z,9.14
2017-05-27T23:11:20.643Z,8.12
2017-05-27T23:13:49.530Z,8.10
2017-05-27T23:16:18.376Z,7.22
2017-05-27T23:18:47.234Z,8.00
2017-05-27T23:21:16.077Z,7.46
2017-05-27T23:23:44.955Z,8.28
2017-05-27T23:26:13.823Z,8.54
2017-05-27T23:28:42.665Z,7.70
2017-05-27T23:31:11.547Z,8.52
2017-05-27T23:33:40.385Z,8.10
2017-05-27T23:36:09.224Z,8.20
2017-05-27T23:38:38.090Z,7.90
2017-05-27T23:41:06.166Z,7.98
2017-05-27T23:43:35.023Z,8.48
2017-05-27T23:46:03.876Z,8.56
2017-05-27T23:48:32.747Z,9.72
2017-05-27T23:51:01.594Z,9.30
2017-05-27T23:53:30.431Z,9.86
2017-05-27T23:55:59.286Z,11.90
2017-05-27T23:58:28.128Z,10.80
